ARG1644 SCEL-SANT
Flight info
| Callsign | ARG1644 |
|---|---|
| Flight time | 1h 25m |
| Altitude | 37000 |
| Route | GUVOL6B GUVOL UN527 JUA UW3 GILSA UZ108 SORTI SORTI2M |
| Aircraft | E190/M-SDE3GILORVW/S |
Departure
| Time | 2026-05-03 22:44 |
|---|---|
| Airport | Comodoro Arturo Merino Benítez International Airport (SCEL) |
Arrival
| Time | 2026-05-04 00:09 |
|---|---|
| Airport | Teniente Benjamín Matienzo International Airport (SANT) |
| Time | Latitude | Longitude | Altitude | Speed | Heading |
|---|---|---|---|---|---|
| 2026-05-03 22:07 | -33.39605 | -70.79819 | 1575 ft | 0 kts | 177° |
| 2026-05-03 22:26 | -33.39603 | -70.79819 | 1577 ft | 1 kts | 177° |
| 2026-05-03 22:26 | -33.39588 | -70.79820 | 1577 ft | 2 kts | 178° |
| 2026-05-03 22:27 | -33.39573 | -70.79820 | 1577 ft | 2 kts | 177° |
| 2026-05-03 22:27 | -33.39558 | -70.79821 | 1577 ft | 2 kts | 178° |
| 2026-05-03 22:27 | -33.39543 | -70.79822 | 1576 ft | 2 kts | 199° |
| 2026-05-03 22:27 | -33.39531 | -70.79811 | 1576 ft | 2 kts | 237° |
| 2026-05-03 22:28 | -33.39526 | -70.79799 | 1577 ft | 0 kts | 264° |
| 2026-05-03 22:28 | -33.39526 | -70.79791 | 1577 ft | 1 kts | 268° |
| 2026-05-03 22:28 | -33.39526 | -70.79789 | 1577 ft | 0 kts | 268° |
| 2026-05-03 22:32 | -33.39526 | -70.79797 | 1576 ft | 2 kts | 268° |
| 2026-05-03 22:32 | -33.39527 | -70.79832 | 1576 ft | 5 kts | 268° |
| 2026-05-03 22:33 | -33.39529 | -70.79881 | 1576 ft | 6 kts | 267° |
| 2026-05-03 22:33 | -33.39531 | -70.79936 | 1576 ft | 6 kts | 267° |
| 2026-05-03 22:33 | -33.39534 | -70.79995 | 1575 ft | 7 kts | 272° |
| 2026-05-03 22:33 | -33.39502 | -70.80042 | 1575 ft | 7 kts | 349° |
| 2026-05-03 22:34 | -33.39445 | -70.80047 | 1575 ft | 8 kts | 356° |
| 2026-05-03 22:34 | -33.39380 | -70.80050 | 1575 ft | 9 kts | 358° |
| 2026-05-03 22:34 | -33.39311 | -70.80053 | 1575 ft | 10 kts | 358° |
| 2026-05-03 22:34 | -33.39243 | -70.80056 | 1575 ft | 10 kts | 356° |
| 2026-05-03 22:35 | -33.39163 | -70.80061 | 1575 ft | 11 kts | 358° |
| 2026-05-03 22:35 | -33.39084 | -70.80066 | 1576 ft | 11 kts | 356° |
| 2026-05-03 22:35 | -33.39004 | -70.80070 | 1576 ft | 11 kts | 358° |
| 2026-05-03 22:35 | -33.38918 | -70.80074 | 1576 ft | 12 kts | 358° |
| 2026-05-03 22:36 | -33.38827 | -70.80078 | 1576 ft | 13 kts | 357° |
| 2026-05-03 22:36 | -33.38748 | -70.80082 | 1576 ft | 8 kts | 358° |
| 2026-05-03 22:36 | -33.38686 | -70.80084 | 1576 ft | 8 kts | 359° |
| 2026-05-03 22:36 | -33.38626 | -70.80086 | 1576 ft | 7 kts | 358° |
| 2026-05-03 22:37 | -33.38573 | -70.80089 | 1576 ft | 7 kts | 356° |
| 2026-05-03 22:37 | -33.38520 | -70.80092 | 1576 ft | 7 kts | 358° |
| 2026-05-03 22:37 | -33.38456 | -70.80097 | 1576 ft | 10 kts | 353° |
| 2026-05-03 22:37 | -33.38380 | -70.80102 | 1576 ft | 12 kts | 358° |
| 2026-05-03 22:38 | -33.38277 | -70.80109 | 1576 ft | 15 kts | 356° |
| 2026-05-03 22:38 | -33.38168 | -70.80112 | 1576 ft | 15 kts | 358° |
| 2026-05-03 22:38 | -33.38060 | -70.80121 | 1576 ft | 15 kts | 357° |
| 2026-05-03 22:38 | -33.37950 | -70.80126 | 1576 ft | 15 kts | 357° |
| 2026-05-03 22:39 | -33.37838 | -70.80132 | 1577 ft | 16 kts | 358° |
| 2026-05-03 22:39 | -33.37724 | -70.80138 | 1577 ft | 16 kts | 358° |
| 2026-05-03 22:39 | -33.37618 | -70.80143 | 1577 ft | 14 kts | 358° |
| 2026-05-03 22:39 | -33.37516 | -70.80148 | 1577 ft | 14 kts | 356° |
| 2026-05-03 22:40 | -33.37413 | -70.80155 | 1577 ft | 14 kts | 357° |
| 2026-05-03 22:40 | -33.37308 | -70.80160 | 1577 ft | 15 kts | 357° |
| 2026-05-03 22:40 | -33.37203 | -70.80166 | 1577 ft | 15 kts | 356° |
| 2026-05-03 22:40 | -33.37118 | -70.80212 | 1577 ft | 13 kts | 306° |
| 2026-05-03 22:41 | -33.37100 | -70.80273 | 1577 ft | 6 kts | 278° |
| 2026-05-03 22:41 | -33.37113 | -70.80326 | 1577 ft | 6 kts | 235° |
| 2026-05-03 22:41 | -33.37148 | -70.80365 | 1577 ft | 7 kts | 208° |
| 2026-05-03 22:41 | -33.37184 | -70.80373 | 1576 ft | 2 kts | 178° |
| 2026-05-03 22:42 | -33.37195 | -70.80372 | 1576 ft | 1 kts | 178° |
| 2026-05-03 22:42 | -33.37196 | -70.80372 | 1576 ft | 0 kts | 178° |
| 2026-05-03 22:42 | -33.37204 | -70.80372 | 1576 ft | 4 kts | 178° |
| 2026-05-03 22:43 | -33.37479 | -70.80357 | 1577 ft | 74 kts | 177° |
| 2026-05-03 22:43 | -33.38214 | -70.80318 | 1576 ft | 133 kts | 176° |
| 2026-05-03 22:43 | -33.39270 | -70.80258 | 1700 ft | 164 kts | 177° |
| 2026-05-03 22:43 | -33.40483 | -70.80187 | 2068 ft | 183 kts | 177° |
| 2026-05-03 22:44 | -33.41807 | -70.80128 | 2506 ft | 199 kts | 182° |
| 2026-05-03 22:44 | -33.43256 | -70.80194 | 3009 ft | 216 kts | 182° |
| 2026-05-03 22:44 | -33.44756 | -70.80492 | 3809 ft | 219 kts | 205° |
| 2026-05-03 22:44 | -33.45760 | -70.81673 | 4848 ft | 205 kts | 246° |
| 2026-05-03 22:45 | -33.46359 | -70.83135 | 5876 ft | 192 kts | 244° |
| 2026-05-03 22:45 | -33.46977 | -70.84499 | 6380 ft | 186 kts | 242° |
| 2026-05-03 22:45 | -33.47627 | -70.85838 | 6556 ft | 194 kts | 241° |
| 2026-05-03 22:45 | -33.48382 | -70.87337 | 6838 ft | 224 kts | 240° |
| 2026-05-03 22:46 | -33.49273 | -70.89061 | 7014 ft | 259 kts | 241° |
| 2026-05-03 22:46 | -33.49810 | -70.91193 | 7290 ft | 282 kts | 274° |
| 2026-05-03 22:46 | -33.49224 | -70.93374 | 7971 ft | 286 kts | 308° |
| 2026-05-03 22:46 | -33.47782 | -70.94970 | 8977 ft | 281 kts | 327° |
| 2026-05-03 22:47 | -33.46073 | -70.95946 | 10051 ft | 273 kts | 338° |
| 2026-05-03 22:47 | -33.44329 | -70.96821 | 10957 ft | 274 kts | 336° |
| 2026-05-03 22:47 | -33.42563 | -70.97720 | 11613 ft | 282 kts | 336° |
| 2026-05-03 22:47 | -33.40665 | -70.98515 | 12183 ft | 295 kts | 351° |
| 2026-05-03 22:48 | -33.38550 | -70.98412 | 12778 ft | 309 kts | 3° |
| 2026-05-03 22:48 | -33.36399 | -70.98129 | 13503 ft | 314 kts | 2° |
| 2026-05-03 22:48 | -33.34208 | -70.97844 | 14210 ft | 319 kts | 2° |
| 2026-05-03 22:48 | -33.31998 | -70.97558 | 14864 ft | 325 kts | 2° |
| 2026-05-03 22:49 | -33.29693 | -70.97259 | 15541 ft | 331 kts | 1° |
| 2026-05-03 22:49 | -33.27394 | -70.96962 | 16133 ft | 339 kts | 1° |
| 2026-05-03 22:49 | -33.24985 | -70.96651 | 16714 ft | 346 kts | 0° |
| 2026-05-03 22:49 | -33.22556 | -70.96331 | 17307 ft | 354 kts | 2° |
| 2026-05-03 22:50 | -33.20199 | -70.95320 | 17835 ft | 375 kts | 27° |
| 2026-05-03 22:50 | -33.18049 | -70.93513 | 18460 ft | 381 kts | 31° |
| 2026-05-03 22:50 | -33.15876 | -70.91647 | 19154 ft | 383 kts | 30° |
| 2026-05-03 22:50 | -33.13694 | -70.89780 | 19748 ft | 388 kts | 30° |
| 2026-05-03 22:51 | -33.11502 | -70.87908 | 20291 ft | 394 kts | 30° |
| 2026-05-03 22:51 | -33.09235 | -70.85974 | 20824 ft | 400 kts | 29° |
| 2026-05-03 22:51 | -33.06950 | -70.84024 | 21367 ft | 405 kts | 28° |
| 2026-05-03 22:51 | -33.04656 | -70.82063 | 21928 ft | 410 kts | 29° |
| 2026-05-03 22:52 | -33.02357 | -70.80022 | 22504 ft | 414 kts | 30° |
| 2026-05-03 22:52 | -33.00018 | -70.77947 | 23040 ft | 419 kts | 30° |
| 2026-05-03 22:52 | -32.97654 | -70.75849 | 23586 ft | 424 kts | 29° |
| 2026-05-03 22:52 | -32.95262 | -70.73728 | 24091 ft | 429 kts | 30° |
| 2026-05-03 22:53 | -32.92876 | -70.71619 | 24609 ft | 433 kts | 28° |
| 2026-05-03 22:53 | -32.90227 | -70.70104 | 25099 ft | 413 kts | 5° |
| 2026-05-03 22:53 | -32.87414 | -70.69628 | 25619 ft | 404 kts | 355° |
| 2026-05-03 22:53 | -32.84617 | -70.69391 | 26138 ft | 406 kts | 354° |
| 2026-05-03 22:54 | -32.81736 | -70.69183 | 26609 ft | 410 kts | 353° |
| 2026-05-03 22:54 | -32.78881 | -70.68986 | 27133 ft | 413 kts | 353° |
| 2026-05-03 22:54 | -32.76022 | -70.68795 | 27592 ft | 417 kts | 353° |
| 2026-05-03 22:54 | -32.73138 | -70.68602 | 28061 ft | 421 kts | 353° |
| 2026-05-03 22:55 | -32.70229 | -70.68407 | 28533 ft | 424 kts | 353° |
| 2026-05-03 22:55 | -32.67249 | -70.68050 | 28973 ft | 437 kts | 1° |
| 2026-05-03 22:55 | -32.64293 | -70.67098 | 29446 ft | 451 kts | 11° |
| 2026-05-03 22:55 | -32.61414 | -70.65541 | 29864 ft | 466 kts | 21° |
| 2026-05-03 22:56 | -32.58628 | -70.63497 | 30298 ft | 476 kts | 29° |
| 2026-05-03 22:56 | -32.56065 | -70.60913 | 30689 ft | 489 kts | 39° |
| 2026-05-03 22:56 | -32.53878 | -70.57920 | 31077 ft | 499 kts | 49° |
| 2026-05-03 22:56 | -32.52008 | -70.54406 | 31525 ft | 507 kts | 59° |
| 2026-05-03 22:57 | -32.50597 | -70.50591 | 31936 ft | 512 kts | 70° |
| 2026-05-03 22:57 | -32.49557 | -70.46622 | 32343 ft | 515 kts | 69° |
| 2026-05-03 22:57 | -32.48152 | -70.42746 | 32765 ft | 514 kts | 59° |
| 2026-05-03 22:57 | -32.46315 | -70.39216 | 33276 ft | 509 kts | 51° |
| 2026-05-03 22:58 | -32.44434 | -70.35835 | 33790 ft | 510 kts | 54° |
| 2026-05-03 22:58 | -32.42662 | -70.32470 | 34340 ft | 509 kts | 54° |
| 2026-05-03 22:58 | -32.41115 | -70.29494 | 34749 ft | 509 kts | 54° |
| 2026-05-03 22:58 | -32.39512 | -70.26396 | 35204 ft | 508 kts | 54° |
| 2026-05-03 22:59 | -32.37718 | -70.22930 | 35647 ft | 509 kts | 54° |
| 2026-05-03 22:59 | -32.35756 | -70.18627 | 36223 ft | 512 kts | 59° |
| 2026-05-03 22:59 | -32.34066 | -70.14713 | 36708 ft | 511 kts | 59° |
| 2026-05-03 22:59 | -32.32426 | -70.10971 | 37088 ft | 513 kts | 59° |
| 2026-05-03 23:00 | -32.30765 | -70.07195 | 37472 ft | 515 kts | 59° |
| 2026-05-03 23:00 | -32.29108 | -70.03436 | 37659 ft | 521 kts | 58° |
| 2026-05-03 23:00 | -32.27425 | -69.99625 | 37678 ft | 530 kts | 59° |
| 2026-05-03 23:01 | -32.24001 | -69.91876 | 37686 ft | 542 kts | 59° |
| 2026-05-03 23:01 | -32.21096 | -69.85312 | 37674 ft | 535 kts | 59° |
| 2026-05-03 23:02 | -32.17636 | -69.77517 | 37666 ft | 539 kts | 59° |
| 2026-05-03 23:02 | -32.13611 | -69.68469 | 37635 ft | 535 kts | 60° |
| 2026-05-03 23:03 | -32.10757 | -69.62061 | 37562 ft | 526 kts | 60° |
| 2026-05-03 23:03 | -32.07341 | -69.54412 | 37565 ft | 530 kts | 59° |
| 2026-05-03 23:04 | -32.03940 | -69.46817 | 37531 ft | 527 kts | 60° |
| 2026-05-03 23:04 | -32.00535 | -69.39219 | 37529 ft | 525 kts | 59° |
| 2026-05-03 23:05 | -31.97129 | -69.31641 | 37477 ft | 523 kts | 59° |
| 2026-05-03 23:05 | -31.93193 | -69.22901 | 37515 ft | 521 kts | 59° |
| 2026-05-03 23:06 | -31.90365 | -69.16634 | 37462 ft | 517 kts | 59° |
| 2026-05-03 23:06 | -31.86439 | -69.07953 | 37407 ft | 518 kts | 59° |
| 2026-05-03 23:07 | -31.83088 | -69.00556 | 37395 ft | 515 kts | 59° |
| 2026-05-03 23:07 | -31.79718 | -68.93133 | 37329 ft | 514 kts | 59° |
| 2026-05-03 23:08 | -31.76342 | -68.85715 | 37249 ft | 513 kts | 59° |
| 2026-05-03 23:08 | -31.72996 | -68.78374 | 37160 ft | 512 kts | 60° |
| 2026-05-03 23:09 | -31.69626 | -68.70999 | 37071 ft | 516 kts | 59° |
| 2026-05-03 23:09 | -31.66259 | -68.63643 | 37014 ft | 513 kts | 59° |
| 2026-05-03 23:10 | -31.62869 | -68.56248 | 36960 ft | 514 kts | 59° |
| 2026-05-03 23:10 | -31.59499 | -68.48916 | 36909 ft | 514 kts | 59° |
| 2026-05-03 23:11 | -31.55328 | -68.42245 | 36921 ft | 505 kts | 41° |
| 2026-05-03 23:11 | -31.49914 | -68.37149 | 36927 ft | 494 kts | 26° |
| 2026-05-03 23:12 | -31.44113 | -68.32780 | 36916 ft | 496 kts | 27° |
| 2026-05-03 23:12 | -31.38364 | -68.28406 | 36942 ft | 497 kts | 27° |
| 2026-05-03 23:13 | -31.32575 | -68.24005 | 36934 ft | 496 kts | 27° |
| 2026-05-03 23:13 | -31.26765 | -68.19594 | 36957 ft | 498 kts | 26° |
| 2026-05-03 23:14 | -31.20948 | -68.15184 | 36970 ft | 498 kts | 26° |
| 2026-05-03 23:14 | -31.15148 | -68.10794 | 36974 ft | 498 kts | 26° |
| 2026-05-03 23:15 | -31.09334 | -68.06402 | 36957 ft | 499 kts | 26° |
| 2026-05-03 23:15 | -31.03508 | -68.02005 | 36946 ft | 501 kts | 27° |
| 2026-05-03 23:16 | -30.97686 | -67.97617 | 36920 ft | 499 kts | 26° |
| 2026-05-03 23:16 | -30.91812 | -67.93197 | 36927 ft | 498 kts | 26° |
| 2026-05-03 23:17 | -30.86001 | -67.88832 | 36937 ft | 501 kts | 27° |
| 2026-05-03 23:17 | -30.80126 | -67.84425 | 36946 ft | 500 kts | 26° |
| 2026-05-03 23:18 | -30.75259 | -67.80778 | 36968 ft | 500 kts | 27° |
| 2026-05-03 23:18 | -30.68395 | -67.75644 | 37015 ft | 501 kts | 27° |
| 2026-05-03 23:19 | -30.62521 | -67.71256 | 37039 ft | 502 kts | 26° |
| 2026-05-03 23:19 | -30.57626 | -67.67606 | 37046 ft | 501 kts | 26° |
| 2026-05-03 23:20 | -30.51742 | -67.63223 | 37048 ft | 504 kts | 26° |
| 2026-05-03 23:20 | -30.45813 | -67.58813 | 37021 ft | 505 kts | 26° |
| 2026-05-03 23:21 | -30.38911 | -67.53689 | 36988 ft | 503 kts | 26° |
| 2026-05-03 23:21 | -30.33017 | -67.49322 | 36968 ft | 505 kts | 27° |
| 2026-05-03 23:22 | -30.24101 | -67.42725 | 36963 ft | 508 kts | 26° |
| 2026-05-03 23:22 | -30.18157 | -67.38333 | 36965 ft | 508 kts | 26° |
| 2026-05-03 23:23 | -30.12168 | -67.33914 | 36955 ft | 507 kts | 26° |
| 2026-05-03 23:23 | -30.06346 | -67.29628 | 36950 ft | 509 kts | 26° |
| 2026-05-03 23:24 | -30.00355 | -67.25221 | 36949 ft | 509 kts | 25° |
| 2026-05-03 23:24 | -29.94480 | -67.20907 | 36957 ft | 511 kts | 25° |
| 2026-05-03 23:25 | -29.88505 | -67.16526 | 36953 ft | 509 kts | 26° |
| 2026-05-03 23:25 | -29.82522 | -67.12144 | 36955 ft | 504 kts | 25° |
| 2026-05-03 23:26 | -29.76591 | -67.07809 | 36950 ft | 509 kts | 26° |
| 2026-05-03 23:26 | -29.70603 | -67.03437 | 36965 ft | 511 kts | 26° |
| 2026-05-03 23:27 | -29.64615 | -66.99068 | 36992 ft | 508 kts | 26° |
| 2026-05-03 23:27 | -29.58769 | -66.94813 | 36999 ft | 509 kts | 26° |
| 2026-05-03 23:28 | -29.52829 | -66.90494 | 36986 ft | 508 kts | 26° |
| 2026-05-03 23:28 | -29.46867 | -66.86166 | 36961 ft | 508 kts | 26° |
| 2026-05-03 23:29 | -29.40900 | -66.81840 | 36928 ft | 508 kts | 26° |
| 2026-05-03 23:29 | -29.35062 | -66.77197 | 36927 ft | 511 kts | 31° |
| 2026-05-03 23:30 | -29.29313 | -66.72340 | 36919 ft | 510 kts | 30° |
| 2026-05-03 23:30 | -29.23578 | -66.67529 | 36939 ft | 511 kts | 30° |
| 2026-05-03 23:31 | -29.17816 | -66.62702 | 36951 ft | 511 kts | 31° |
| 2026-05-03 23:31 | -29.12068 | -66.57895 | 36971 ft | 512 kts | 30° |
| 2026-05-03 23:32 | -29.06308 | -66.53085 | 36997 ft | 513 kts | 31° |
| 2026-05-03 23:32 | -29.00541 | -66.48274 | 37004 ft | 512 kts | 31° |
| 2026-05-03 23:33 | -28.94745 | -66.43446 | 36988 ft | 511 kts | 31° |
| 2026-05-03 23:33 | -28.91947 | -66.41116 | 36986 ft | 495 kts | 30° |
| 2026-05-03 23:33 | -28.89176 | -66.38814 | 36993 ft | 493 kts | 30° |
| 2026-05-03 23:34 | -28.83619 | -66.34199 | 36801 ft | 495 kts | 30° |
| 2026-05-03 23:34 | -28.80853 | -66.31905 | 36246 ft | 495 kts | 30° |
| 2026-05-03 23:34 | -28.78063 | -66.29592 | 35706 ft | 494 kts | 30° |
| 2026-05-03 23:35 | -28.75290 | -66.27293 | 35184 ft | 494 kts | 30° |
| 2026-05-03 23:35 | -28.72490 | -66.24975 | 34653 ft | 495 kts | 31° |
| 2026-05-03 23:35 | -28.69695 | -66.22662 | 34110 ft | 495 kts | 31° |
| 2026-05-03 23:35 | -28.66918 | -66.20366 | 33566 ft | 499 kts | 31° |
| 2026-05-03 23:36 | -28.64104 | -66.18040 | 33058 ft | 499 kts | 31° |
| 2026-05-03 23:36 | -28.61293 | -66.15720 | 32514 ft | 498 kts | 31° |
| 2026-05-03 23:36 | -28.58470 | -66.13390 | 31974 ft | 497 kts | 31° |
| 2026-05-03 23:36 | -28.55685 | -66.11092 | 31452 ft | 495 kts | 31° |
| 2026-05-03 23:37 | -28.52906 | -66.08801 | 30948 ft | 491 kts | 31° |
| 2026-05-03 23:37 | -28.50150 | -66.06531 | 30503 ft | 488 kts | 31° |
| 2026-05-03 23:37 | -28.47405 | -66.04272 | 30034 ft | 482 kts | 32° |
| 2026-05-03 23:37 | -28.44702 | -66.02047 | 29538 ft | 476 kts | 31° |
| 2026-05-03 23:38 | -28.42065 | -65.99880 | 29098 ft | 468 kts | 31° |
| 2026-05-03 23:38 | -28.39401 | -65.97694 | 28568 ft | 469 kts | 32° |
| 2026-05-03 23:38 | -28.36785 | -65.95544 | 27958 ft | 464 kts | 32° |
| 2026-05-03 23:38 | -28.34177 | -65.93404 | 27392 ft | 457 kts | 32° |
| 2026-05-03 23:39 | -28.31609 | -65.91299 | 26869 ft | 452 kts | 32° |
| 2026-05-03 23:39 | -28.29076 | -65.89223 | 26303 ft | 448 kts | 32° |
| 2026-05-03 23:39 | -28.26534 | -65.87141 | 25768 ft | 444 kts | 32° |
| 2026-05-03 23:39 | -28.24053 | -65.85111 | 25264 ft | 439 kts | 32° |
| 2026-05-03 23:40 | -28.21568 | -65.83078 | 24762 ft | 436 kts | 33° |
| 2026-05-03 23:40 | -28.19139 | -65.81092 | 24269 ft | 431 kts | 33° |
| 2026-05-03 23:40 | -28.16708 | -65.79106 | 23768 ft | 427 kts | 33° |
| 2026-05-03 23:40 | -28.14311 | -65.77148 | 23300 ft | 422 kts | 33° |
| 2026-05-03 23:41 | -28.11909 | -65.75188 | 22847 ft | 419 kts | 33° |
| 2026-05-03 23:41 | -28.09554 | -65.73267 | 22355 ft | 416 kts | 34° |
| 2026-05-03 23:41 | -28.07219 | -65.71364 | 21892 ft | 412 kts | 34° |
| 2026-05-03 23:41 | -28.04900 | -65.69473 | 21452 ft | 409 kts | 33° |
| 2026-05-03 23:42 | -28.02587 | -65.67591 | 21006 ft | 406 kts | 34° |
| 2026-05-03 23:42 | -28.00316 | -65.65742 | 20557 ft | 404 kts | 34° |
| 2026-05-03 23:42 | -27.98044 | -65.63894 | 20128 ft | 403 kts | 34° |
| 2026-05-03 23:42 | -27.95758 | -65.62035 | 19673 ft | 401 kts | 34° |
| 2026-05-03 23:43 | -27.93494 | -65.60195 | 19186 ft | 397 kts | 34° |
| 2026-05-03 23:43 | -27.92015 | -65.58993 | 18887 ft | 394 kts | 34° |
| 2026-05-03 23:43 | -27.89049 | -65.56586 | 18304 ft | 392 kts | 34° |
| 2026-05-03 23:43 | -27.87567 | -65.55383 | 18025 ft | 392 kts | 34° |
| 2026-05-03 23:44 | -27.84618 | -65.52992 | 17389 ft | 388 kts | 34° |
| 2026-05-03 23:44 | -27.82434 | -65.51221 | 16989 ft | 385 kts | 34° |
| 2026-05-03 23:44 | -27.80255 | -65.49456 | 16527 ft | 385 kts | 35° |
| 2026-05-03 23:44 | -27.78108 | -65.47718 | 16126 ft | 381 kts | 35° |
| 2026-05-03 23:45 | -27.75963 | -65.45982 | 15654 ft | 379 kts | 35° |
| 2026-05-03 23:45 | -27.73832 | -65.44257 | 15234 ft | 375 kts | 35° |
| 2026-05-03 23:45 | -27.71659 | -65.42612 | 14872 ft | 373 kts | 26° |
| 2026-05-03 23:45 | -27.69301 | -65.41428 | 14484 ft | 371 kts | 22° |
| 2026-05-03 23:46 | -27.66944 | -65.40303 | 14120 ft | 369 kts | 22° |
| 2026-05-03 23:46 | -27.64590 | -65.39182 | 13713 ft | 366 kts | 22° |
| 2026-05-03 23:46 | -27.62248 | -65.38068 | 13275 ft | 362 kts | 22° |
| 2026-05-03 23:46 | -27.59927 | -65.36964 | 12856 ft | 359 kts | 22° |
| 2026-05-03 23:47 | -27.57639 | -65.35877 | 12458 ft | 357 kts | 22° |
| 2026-05-03 23:47 | -27.55344 | -65.34788 | 12055 ft | 355 kts | 22° |
| 2026-05-03 23:47 | -27.53097 | -65.33720 | 11706 ft | 348 kts | 22° |
| 2026-05-03 23:47 | -27.50865 | -65.32661 | 11298 ft | 342 kts | 22° |
| 2026-05-03 23:48 | -27.48693 | -65.31632 | 10955 ft | 332 kts | 22° |
| 2026-05-03 23:48 | -27.46594 | -65.30636 | 10601 ft | 324 kts | 23° |
| 2026-05-03 23:48 | -27.44535 | -65.29661 | 10182 ft | 314 kts | 23° |
| 2026-05-03 23:48 | -27.42539 | -65.28715 | 9825 ft | 304 kts | 23° |
| 2026-05-03 23:49 | -27.40619 | -65.27805 | 9523 ft | 295 kts | 24° |
| 2026-05-03 23:49 | -27.38750 | -65.26920 | 9201 ft | 292 kts | 24° |
| 2026-05-03 23:49 | -27.36870 | -65.26031 | 8944 ft | 291 kts | 23° |
| 2026-05-03 23:49 | -27.34989 | -65.25140 | 8597 ft | 290 kts | 22° |
| 2026-05-03 23:50 | -27.33155 | -65.24273 | 8214 ft | 284 kts | 22° |
| 2026-05-03 23:50 | -27.31925 | -65.23692 | 8003 ft | 280 kts | 22° |
| 2026-05-03 23:50 | -27.29553 | -65.22571 | 7650 ft | 278 kts | 22° |
| 2026-05-03 23:50 | -27.28348 | -65.22001 | 7441 ft | 277 kts | 22° |
| 2026-05-03 23:51 | -27.25997 | -65.20891 | 7048 ft | 274 kts | 22° |
| 2026-05-03 23:51 | -27.24247 | -65.20064 | 6702 ft | 270 kts | 21° |
| 2026-05-03 23:51 | -27.22528 | -65.19253 | 6415 ft | 266 kts | 21° |
| 2026-05-03 23:51 | -27.20832 | -65.18453 | 6099 ft | 263 kts | 21° |
| 2026-05-03 23:52 | -27.19140 | -65.17656 | 5815 ft | 263 kts | 21° |
| 2026-05-03 23:52 | -27.17428 | -65.16918 | 5556 ft | 262 kts | 12° |
| 2026-05-03 23:52 | -27.15641 | -65.16553 | 5604 ft | 256 kts | 9° |
| 2026-05-03 23:52 | -27.13877 | -65.16214 | 5589 ft | 257 kts | 9° |
| 2026-05-03 23:53 | -27.12097 | -65.15871 | 5559 ft | 256 kts | 11° |
| 2026-05-03 23:53 | -27.10388 | -65.15311 | 5532 ft | 260 kts | 17° |
| 2026-05-03 23:53 | -27.08660 | -65.14681 | 5538 ft | 262 kts | 17° |
| 2026-05-03 23:53 | -27.06910 | -65.14040 | 5560 ft | 263 kts | 17° |
| 2026-05-03 23:54 | -27.05172 | -65.13406 | 5597 ft | 263 kts | 17° |
| 2026-05-03 23:54 | -27.03459 | -65.12677 | 5591 ft | 261 kts | 26° |
| 2026-05-03 23:54 | -27.01857 | -65.11687 | 5586 ft | 261 kts | 27° |
| 2026-05-03 23:54 | -27.00285 | -65.10706 | 5593 ft | 259 kts | 27° |
| 2026-05-03 23:55 | -26.98703 | -65.09717 | 5561 ft | 260 kts | 27° |
| 2026-05-03 23:55 | -26.97118 | -65.08727 | 5558 ft | 260 kts | 27° |
| 2026-05-03 23:55 | -26.95532 | -65.07738 | 5572 ft | 260 kts | 27° |
| 2026-05-03 23:55 | -26.93946 | -65.06748 | 5563 ft | 258 kts | 27° |
| 2026-05-03 23:56 | -26.92373 | -65.05767 | 5561 ft | 259 kts | 27° |
| 2026-05-03 23:56 | -26.90806 | -65.04790 | 5563 ft | 258 kts | 27° |
| 2026-05-03 23:56 | -26.89228 | -65.03805 | 5565 ft | 258 kts | 27° |
| 2026-05-03 23:56 | -26.87658 | -65.02827 | 5562 ft | 259 kts | 28° |
| 2026-05-03 23:57 | -26.86078 | -65.01843 | 5560 ft | 258 kts | 27° |
| 2026-05-03 23:57 | -26.84516 | -65.00870 | 5548 ft | 258 kts | 27° |
| 2026-05-03 23:57 | -26.82914 | -64.99873 | 5560 ft | 259 kts | 27° |
| 2026-05-03 23:57 | -26.81346 | -64.98896 | 5567 ft | 258 kts | 27° |
| 2026-05-03 23:58 | -26.79792 | -64.97929 | 5551 ft | 256 kts | 27° |
| 2026-05-03 23:58 | -26.78222 | -64.96953 | 5550 ft | 256 kts | 27° |
| 2026-05-03 23:58 | -26.76646 | -64.95973 | 5562 ft | 256 kts | 27° |
| 2026-05-03 23:58 | -26.75078 | -64.94998 | 5539 ft | 257 kts | 27° |
| 2026-05-03 23:59 | -26.73541 | -64.94043 | 5531 ft | 246 kts | 28° |
| 2026-05-03 23:59 | -26.72085 | -64.93137 | 5527 ft | 227 kts | 27° |
| 2026-05-03 23:59 | -26.70729 | -64.92295 | 5535 ft | 223 kts | 27° |
| 2026-05-03 23:59 | -26.69345 | -64.91437 | 5558 ft | 225 kts | 27° |
| 2026-05-04 00:00 | -26.67963 | -64.90579 | 5562 ft | 226 kts | 27° |
| 2026-05-04 00:00 | -26.66587 | -64.89725 | 5560 ft | 227 kts | 27° |
| 2026-05-04 00:00 | -26.65188 | -64.88860 | 5566 ft | 227 kts | 25° |
| 2026-05-04 00:00 | -26.63653 | -64.88601 | 5577 ft | 225 kts | 346° |
| 2026-05-04 00:01 | -26.62348 | -64.89541 | 5605 ft | 232 kts | 308° |
| 2026-05-04 00:01 | -26.61847 | -64.91219 | 5603 ft | 224 kts | 279° |
| 2026-05-04 00:01 | -26.61716 | -64.92884 | 5561 ft | 210 kts | 279° |
| 2026-05-04 00:01 | -26.61598 | -64.94452 | 5538 ft | 198 kts | 279° |
| 2026-05-04 00:02 | -26.61483 | -64.95985 | 5559 ft | 197 kts | 279° |
| 2026-05-04 00:02 | -26.61370 | -64.97527 | 5605 ft | 200 kts | 278° |
| 2026-05-04 00:02 | -26.61256 | -64.99091 | 5604 ft | 200 kts | 278° |
| 2026-05-04 00:02 | -26.61144 | -65.00640 | 5613 ft | 200 kts | 278° |
| 2026-05-04 00:03 | -26.61037 | -65.02195 | 5602 ft | 201 kts | 273° |
| 2026-05-04 00:03 | -26.61510 | -65.03670 | 5641 ft | 210 kts | 230° |
| 2026-05-04 00:03 | -26.62769 | -65.04588 | 5326 ft | 220 kts | 205° |
| 2026-05-04 00:03 | -26.64161 | -65.05285 | 5030 ft | 219 kts | 205° |
| 2026-05-04 00:04 | -26.65520 | -65.05969 | 4775 ft | 207 kts | 205° |
| 2026-05-04 00:04 | -26.66761 | -65.06597 | 4607 ft | 184 kts | 205° |
| 2026-05-04 00:04 | -26.67890 | -65.07171 | 4286 ft | 173 kts | 205° |
| 2026-05-04 00:04 | -26.68976 | -65.07566 | 4061 ft | 154 kts | 189° |
| 2026-05-04 00:05 | -26.70001 | -65.07767 | 3829 ft | 144 kts | 188° |
| 2026-05-04 00:05 | -26.70991 | -65.07960 | 3695 ft | 145 kts | 187° |
| 2026-05-04 00:05 | -26.72006 | -65.08157 | 3565 ft | 146 kts | 187° |
| 2026-05-04 00:05 | -26.73011 | -65.08350 | 3389 ft | 147 kts | 187° |
| 2026-05-04 00:06 | -26.74042 | -65.08549 | 3202 ft | 149 kts | 187° |
| 2026-05-04 00:06 | -26.75047 | -65.08741 | 3027 ft | 146 kts | 188° |
| 2026-05-04 00:06 | -26.76043 | -65.08933 | 2850 ft | 141 kts | 188° |
| 2026-05-04 00:06 | -26.77002 | -65.09113 | 2626 ft | 138 kts | 188° |
| 2026-05-04 00:07 | -26.77940 | -65.09273 | 2400 ft | 132 kts | 188° |
| 2026-05-04 00:07 | -26.78846 | -65.09435 | 2176 ft | 129 kts | 189° |
| 2026-05-04 00:07 | -26.79716 | -65.09601 | 1977 ft | 124 kts | 191° |
| 2026-05-04 00:07 | -26.80564 | -65.09777 | 1841 ft | 122 kts | 193° |
| 2026-05-04 00:08 | -26.81392 | -65.09948 | 1707 ft | 120 kts | 191° |
| 2026-05-04 00:08 | -26.82221 | -65.10119 | 1551 ft | 121 kts | 192° |
| 2026-05-04 00:08 | -26.83031 | -65.10283 | 1497 ft | 102 kts | 189° |
| 2026-05-04 00:08 | -26.83590 | -65.10390 | 1486 ft | 59 kts | 189° |
| 2026-05-04 00:09 | -26.83880 | -65.10448 | 1477 ft | 19 kts | 189° |
| 2026-05-04 00:09 | -26.83983 | -65.10468 | 1475 ft | 15 kts | 191° |
| 2026-05-04 00:09 | -26.84096 | -65.10490 | 1473 ft | 17 kts | 188° |
| 2026-05-04 00:09 | -26.84168 | -65.10512 | 1471 ft | 7 kts | 216° |
| 2026-05-04 00:10 | -26.84180 | -65.10554 | 1471 ft | 1 kts | 330° |
| 2026-05-04 00:10 | -26.84160 | -65.10560 | 1471 ft | 7 kts | 346° |
| 2026-05-04 00:10 | -26.84096 | -65.10581 | 1473 ft | 3 kts | 341° |
| 2026-05-04 00:10 | -26.84069 | -65.10591 | 1473 ft | 4 kts | 341° |
| 2026-05-04 00:11 | -26.84041 | -65.10603 | 1474 ft | 4 kts | 340° |
| 2026-05-04 00:11 | -26.84006 | -65.10616 | 1474 ft | 6 kts | 340° |
| 2026-05-04 00:11 | -26.83964 | -65.10634 | 1475 ft | 6 kts | 340° |
| 2026-05-04 00:11 | -26.83920 | -65.10652 | 1476 ft | 10 kts | 340° |
| 2026-05-04 00:12 | -26.83847 | -65.10683 | 1478 ft | 11 kts | 340° |
| 2026-05-04 00:12 | -26.83783 | -65.10708 | 1479 ft | 8 kts | 342° |
| 2026-05-04 00:12 | -26.83747 | -65.10714 | 1479 ft | 7 kts | 9° |
| 2026-05-04 00:12 | -26.83685 | -65.10703 | 1481 ft | 5 kts | 7° |
| 2026-05-04 00:13 | -26.83650 | -65.10699 | 1482 ft | 4 kts | 7° |
| 2026-05-04 00:13 | -26.83626 | -65.10694 | 1483 ft | 2 kts | 8° |
| 2026-05-04 00:13 | -26.83600 | -65.10690 | 1484 ft | 5 kts | 6° |
| 2026-05-04 00:13 | -26.83570 | -65.10686 | 1485 ft | 4 kts | 13° |
| 2026-05-04 00:14 | -26.83544 | -65.10683 | 1486 ft | 3 kts | 333° |
| 2026-05-04 00:14 | -26.83540 | -65.10706 | 1486 ft | 3 kts | 277° |
| 2026-05-04 00:14 | -26.83536 | -65.10731 | 1486 ft | 3 kts | 278° |
| 2026-05-04 00:14 | -26.83534 | -65.10748 | 1486 ft | 0 kts | 281° |